Time;durP1;ratioP1;P1;durP2;ratioP2;P2;SDS_P1;SDS_P2;PMS_P1;PMS_P2;Temp;Humidity;BMP_temperature;BMP_pressure;BME280_temperature;BME280_humidity;BME280_pressure;Samples;Min_cycle;Max_cycle;Signal;HPM_P1;HPM_P2
2024/01/17 00:00:51;;;;;;;9.73;7.03;;;;;;;10.28;79.36;97252.72;5109551;28;20032;-47
2024/01/17 00:03:17;;;;;;;11.73;6.35;;;;;;;10.33;76.28;97262.50;5109530;28;20028;-48
2024/01/17 00:05:42;;;;;;;8.75;6.35;;;;;;;10.39;78.77;97275.47;5093731;28;20103;-48
2024/01/17 00:08:09;;;;;;;7.18;5.55;;;;;;;10.50;78.51;97262.56;5092495;28;20032;-48
2024/01/17 00:10:35;;;;;;;12.05;6.10;;;;;;;10.57;78.64;97269.25;5109344;28;20031;-48
2024/01/17 00:13:02;;;;;;;8.20;4.72;;;;;;;10.67;79.08;97284.38;5093634;28;20028;-48
2024/01/17 00:15:27;;;;;;;8.20;5.75;;;;;;;10.77;81.08;97305.56;5093452;28;20107;-48
2024/01/17 00:17:54;;;;;;;10.55;8.25;;;;;;;10.81;76.91;97305.09;5092186;28;20112;-48
2024/01/17 00:20:19;;;;;;;8.40;6.38;;;;;;;10.78;78.65;97270.44;5093185;28;20070;-48
2024/01/17 00:22:45;;;;;;;8.07;5.57;;;;;;;10.89;80.44;97284.50;5109097;28;20056;-48
2024/01/17 00:25:11;;;;;;;6.63;4.47;;;;;;;10.93;76.51;97271.72;5093409;28;20029;-48
2024/01/17 00:27:38;;;;;;;7.72;5.38;;;;;;;10.83;77.59;97277.56;5093648;28;20028;-48
2024/01/17 00:30:06;;;;;;;7.65;6.20;;;;;;;10.94;77.60;97274.06;5093278;28;20024;-48
2024/01/17 00:32:32;;;;;;;7.93;5.70;;;;;;;10.91;75.11;97285.06;5092978;28;20031;-48
2024/01/17 00:34:59;;;;;;;12.50;6.07;;;;;;;10.85;75.64;97288.63;5108272;28;20028;-48
2024/01/17 00:37:25;;;;;;;13.55;11.15;;;;;;;10.76;75.83;97267.22;5109020;28;20032;-48
2024/01/17 00:39:51;;;;;;;37.25;29.38;;;;;;;10.65;79.20;97275.16;5091753;28;20490;-48
2024/01/17 00:42:17;;;;;;;9.88;6.90;;;;;;;10.55;77.16;97258.19;5093259;28;20076;-48
2024/01/17 00:44:42;;;;;;;11.60;9.20;;;;;;;10.45;77.47;97250.16;5108938;28;20505;-48
2024/01/17 00:47:08;;;;;;;13.15;10.15;;;;;;;10.36;79.38;97238.44;5091633;28;20383;-48
2024/01/17 00:49:35;;;;;;;15.35;11.18;;;;;;;10.33;80.15;97249.41;5091715;28;20042;-48
2024/01/17 00:52:00;;;;;;;11.32;9.52;;;;;;;10.32;78.71;97247.78;5092845;28;20023;-48
2024/01/17 00:54:26;;;;;;;9.90;7.75;;;;;;;10.41;81.93;97235.13;5092857;28;20021;-48
2024/01/17 00:56:52;;;;;;;10.13;8.00;;;;;;;10.48;82.13;97249.66;5092716;28;20020;-48
2024/01/17 00:59:18;;;;;;;12.63;7.78;;;;;;;10.44;82.58;97245.13;5092771;28;20024;-48
2024/01/17 01:01:43;;;;;;;10.25;6.72;;;;;;;10.39;83.67;97238.75;5108317;28;20020;-48
2024/01/17 01:04:09;;;;;;;8.95;6.43;;;;;;;10.26;83.87;97235.59;5092704;28;20028;-48
2024/01/17 01:06:35;;;;;;;9.27;7.10;;;;;;;10.12;84.01;97237.69;5092492;28;20510;-48
2024/01/17 01:09:00;;;;;;;14.05;8.25;;;;;;;9.98;83.34;97234.56;5108253;28;20073;-48
2024/01/17 01:11:33;;;;;;;10.68;7.60;;;;;;;10.14;83.83;97212.03;5108154;28;20028;-48
2024/01/17 01:13:59;;;;;;;11.50;7.65;;;;;;;10.54;85.89;97217.28;5108075;28;20475;-49
2024/01/17 01:16:25;;;;;;;8.57;6.60;;;;;;;10.84;84.58;97221.41;5108012;28;20029;-48
2024/01/17 01:18:51;;;;;;;10.85;7.65;;;;;;;10.97;82.71;97221.13;5092187;28;20505;-48
2024/01/17 01:21:17;;;;;;;11.40;7.35;;;;;;;11.03;79.64;97219.38;5092678;28;20024;-48
2024/01/17 01:23:43;;;;;;;10.05;7.13;;;;;;;11.10;78.53;97216.56;5091148;28;20024;-49
2024/01/17 01:26:09;;;;;;;12.98;7.43;;;;;;;11.20;79.05;97204.38;5092252;28;20445;-48
2024/01/17 01:28:35;;;;;;;12.60;9.30;;;;;;;11.33;81.05;97213.78;5092225;28;20028;-48
2024/01/17 01:31:01;;;;;;;15.50;11.85;;;;;;;11.07;82.66;97220.47;5092276;28;20032;-48
2024/01/17 01:33:26;;;;;;;11.25;9.25;;;;;;;10.98;87.39;97196.44;5092190;28;20020;-48
2024/01/17 01:35:52;;;;;;;9.40;8.25;;;;;;;10.89;89.63;97176.91;5090837;28;20024;-48
2024/01/17 01:38:18;;;;;;;10.65;8.93;;;;;;;10.77;90.10;97179.59;5107664;28;20393;-47
2024/01/17 01:40:44;;;;;;;11.50;9.45;;;;;;;10.54;90.85;97175.31;5107665;28;20118;-47
2024/01/17 01:43:20;;;;;;;14.35;8.05;;;;;;;10.23;93.75;97196.75;5092078;28;20023;-46
2024/01/17 01:46:02;;;;;;;9.70;7.03;;;;;;;10.10;96.77;97200.44;5090824;28;20040;-47
2024/01/17 01:48:28;;;;;;;18.63;16.42;;;;;;;9.87;96.82;97198.69;5089919;28;20024;-47
2024/01/17 01:50:54;;;;;;;19.15;16.65;;;;;;;9.65;100.00;97194.06;5090583;28;20101;-46
2024/01/17 01:53:20;;;;;;;11.13;7.97;;;;;;;9.59;100.00;97184.50;5091950;28;20031;-47
2024/01/17 01:55:46;;;;;;;12.38;9.30;;;;;;;9.53;100.00;97186.22;5107562;28;20031;-47
2024/01/17 01:58:12;;;;;;;12.10;9.85;;;;;;;9.53;100.00;97196.69;5091810;28;20020;-46
2024/01/17 02:00:38;;;;;;;13.98;11.30;;;;;;;9.59;100.00;97211.50;5091800;28;20027;-47
2024/01/17 02:03:05;;;;;;;12.23;8.77;;;;;;;9.58;100.00;97214.38;5090606;28;20020;-47
2024/01/17 02:05:30;;;;;;;15.13;11.68;;;;;;;9.60;100.00;97193.97;5090553;28;20493;-47
2024/01/17 02:07:57;;;;;;;13.45;9.93;;;;;;;9.67;100.00;97178.13;5090531;28;20039;-44
2024/01/17 02:10:22;;;;;;;22.60;19.42;;;;;;;9.78;100.00;97167.63;5107463;28;20444;-45
2024/01/17 02:12:49;;;;;;;17.88;11.85;;;;;;;9.83;100.00;97155.63;5090409;28;20028;-45
2024/01/17 02:15:15;;;;;;;16.58;12.13;;;;;;;10.06;100.00;97152.94;5091728;28;20031;-45
2024/01/17 02:17:42;;;;;;;12.57;7.97;;;;;;;10.09;100.00;97146.44;5090371;28;20016;-45
2024/01/17 02:20:08;;;;;;;27.75;23.77;;;;;;;10.09;100.00;97144.59;5107123;28;20044;-45
2024/01/17 02:22:34;;;;;;;15.43;11.85;;;;;;;10.09;100.00;97159.53;5090318;28;20028;-45
2024/01/17 02:25:06;;;;;;;15.30;10.13;;;;;;;10.08;100.00;97158.75;5091665;28;20082;-46
2024/01/17 02:27:32;;;;;;;11.88;8.63;;;;;;;10.31;100.00;97154.44;5091562;28;20028;-46
2024/01/17 02:29:58;;;;;;;12.80;8.85;;;;;;;10.57;100.00;97124.97;5091620;28;20027;-45
2024/01/17 02:32:25;;;;;;;12.13;8.93;;;;;;;10.75;100.00;97104.78;5091826;28;20055;-45
2024/01/17 02:34:50;;;;;;;13.05;11.38;;;;;;;10.86;99.73;97093.38;5107201;28;20379;-45
2024/01/17 02:37:17;;;;;;;11.20;7.75;;;;;;;10.98;100.00;97086.19;5091454;28;20556;-45
2024/01/17 02:39:43;;;;;;;11.43;9.13;;;;;;;10.98;97.42;97091.44;5073369;28;20054;-46
2024/01/17 02:42:09;;;;;;;11.73;8.13;;;;;;;10.91;100.00;97111.06;5090147;28;20052;-45
2024/01/17 02:44:35;;;;;;;17.98;13.05;;;;;;;10.85;100.00;97097.06;5091464;28;20120;-45
2024/01/17 02:47:00;;;;;;;13.18;8.57;;;;;;;10.79;100.00;97103.25;5091686;28;20441;-46
2024/01/17 02:49:26;;;;;;;14.00;9.90;;;;;;;10.71;100.00;97086.09;5091323;28;20048;-46
2024/01/17 02:51:52;;;;;;;11.25;7.90;;;;;;;10.67;100.00;97073.72;5091398;28;20095;-45
2024/01/17 02:54:18;;;;;;;12.15;10.63;;;;;;;10.52;100.00;97080.31;5091397;28;20397;-46
2024/01/17 02:56:44;;;;;;;10.80;8.63;;;;;;;10.49;100.00;97062.44;5089905;28;20056;-45
2024/01/17 02:59:10;;;;;;;11.07;7.30;;;;;;;10.68;100.00;97068.19;5108913;28;20114;-45
2024/01/17 03:01:35;;;;;;;8.98;6.78;;;;;;;10.71;100.00;97052.00;5095246;28;20039;-45
2024/01/17 03:04:01;;;;;;;10.40;7.00;;;;;;;10.69;100.00;97051.44;5094986;28;20486;-45
2024/01/17 03:06:27;;;;;;;12.98;6.85;;;;;;;10.78;100.00;97055.25;5094961;28;20020;-46
2024/01/17 03:08:53;;;;;;;7.88;6.57;;;;;;;10.89;100.00;97035.16;5094954;28;20024;-45
2024/01/17 03:11:19;;;;;;;11.48;10.13;;;;;;;10.86;100.00;97019.91;5095066;28;20031;-45
2024/01/17 03:13:44;;;;;;;6.95;5.40;;;;;;;10.86;97.92;97009.41;5094885;28;20016;-45
2024/01/17 03:16:10;;;;;;;8.43;6.47;;;;;;;10.82;97.20;97003.06;5094719;28;20074;-46
2024/01/17 03:18:37;;;;;;;7.47;5.82;;;;;;;10.71;98.65;96996.09;5094318;28;20127;-45
2024/01/17 03:21:06;;;;;;;25.77;23.17;;;;;;;10.72;97.49;96997.69;5094730;28;20428;-46
2024/01/17 03:23:31;;;;;;;9.05;7.68;;;;;;;10.76;96.25;96968.06;5093467;28;20024;-45
2024/01/17 03:25:57;;;;;;;6.90;4.90;;;;;;;10.74;93.51;96967.53;5110227;28;20551;-45
2024/01/17 03:28:23;;;;;;;11.38;5.95;;;;;;;10.62;93.54;96890.78;5094523;28;20382;-45
2024/01/17 03:30:48;;;;;;;6.28;5.47;;;;;;;10.59;96.62;96899.16;5110121;28;20555;-48
2024/01/17 03:33:14;;;;;;;17.27;6.15;;;;;;;10.62;95.64;96948.50;5094445;28;20470;-48
2024/01/17 03:35:42;;;;;;;5.07;4.05;;;;;;;10.61;95.69;96912.03;5094402;28;20055;-48
2024/01/17 03:38:08;;;;;;;5.57;4.07;;;;;;;10.56;96.50;96915.34;5094306;28;20065;-48
2024/01/17 03:40:33;;;;;;;6.95;4.40;;;;;;;10.49;98.09;96933.13;5094248;28;20012;-47
2024/01/17 03:42:59;;;;;;;8.55;3.45;;;;;;;10.51;97.42;96944.16;5094242;28;20482;-48
2024/01/17 03:45:26;;;;;;;5.70;3.55;;;;;;;10.50;100.00;96930.25;5094153;28;20032;-47
2024/01/17 03:47:52;;;;;;;6.45;4.47;;;;;;;10.44;100.00;96930.41;5094213;28;20093;-47
2024/01/17 03:50:17;;;;;;;5.65;4.00;;;;;;;10.36;100.00;96913.28;5109743;28;20024;-47
2024/01/17 03:52:43;;;;;;;9.13;4.57;;;;;;;10.23;100.00;96916.22;5094075;28;20023;-46
2024/01/17 03:55:09;;;;;;;4.35;3.95;;;;;;;10.16;100.00;96909.34;5094032;28;20436;-46
2024/01/17 03:57:35;;;;;;;5.78;5.10;;;;;;;10.09;100.00;96921.00;5093943;28;20028;-47
2024/01/17 04:00:03;;;;;;;6.25;4.88;;;;;;;10.08;100.00;96851.25;5109649;28;20024;-46
2024/01/17 04:02:29;;;;;;;6.10;3.60;;;;;;;10.05;100.00;96919.91;5109540;28;20060;-46
2024/01/17 04:04:55;;;;;;;4.68;3.58;;;;;;;9.98;100.00;96944.44;5109585;28;20074;-46
2024/01/17 04:07:22;;;;;;;8.27;5.20;;;;;;;9.94;100.00;96914.53;5093762;28;20024;-46
2024/01/17 04:09:48;;;;;;;4.38;3.15;;;;;;;9.94;100.00;96877.84;5092882;28;20099;-46
2024/01/17 04:12:13;;;;;;;4.72;3.08;;;;;;;9.91;100.00;96870.44;5109191;28;20120;-46
2024/01/17 04:14:39;;;;;;;3.90;3.10;;;;;;;9.86;100.00;96941.13;5109347;28;20401;-46
2024/01/17 04:17:05;;;;;;;6.07;4.28;;;;;;;9.85;100.00;96902.06;5093515;28;20550;-43
2024/01/17 04:19:31;;;;;;;8.07;6.93;;;;;;;9.83;100.00;96893.66;5108976;28;20048;-46
2024/01/17 04:21:57;;;;;;;6.78;6.07;;;;;;;9.83;100.00;96918.00;5092192;28;20028;-46
2024/01/17 04:24:26;;;;;;;7.53;5.00;;;;;;;9.80;100.00;96887.84;5109361;28;20035;-46
2024/01/17 04:26:55;;;;;;;7.93;6.82;;;;;;;9.83;100.00;96928.50;5093335;28;20432;-45
2024/01/17 04:29:21;;;;;;;5.47;4.10;;;;;;;9.79;100.00;96937.84;5108965;28;20028;-43
2024/01/17 04:31:48;;;;;;;12.63;6.50;;;;;;;9.83;100.00;96904.13;5075160;28;20028;-43
2024/01/17 04:34:15;;;;;;;4.97;4.15;;;;;;;9.85;100.00;96887.13;5093256;28;20036;-43
2024/01/17 04:36:41;;;;;;;8.13;6.70;;;;;;;9.95;100.00;96889.88;5093114;28;20012;-45
2024/01/17 04:39:08;;;;;;;4.43;3.22;;;;;;;10.09;100.00;96913.16;5091936;28;20375;-45
2024/01/17 04:41:34;;;;;;;6.45;3.10;;;;;;;10.05;100.00;96886.63;5093092;28;20024;-45
2024/01/17 04:44:00;;;;;;;4.68;2.67;;;;;;;10.07;100.00;96895.03;5091889;28;20028;-45
2024/01/17 04:46:27;;;;;;;4.30;3.15;;;;;;;10.05;100.00;96883.22;5092972;28;20049;-45
2024/01/17 04:48:52;;;;;;;4.32;3.15;;;;;;;9.93;100.00;96849.25;5092997;28;20024;-45
2024/01/17 04:51:22;;;;;;;8.05;6.30;;;;;;;9.77;100.00;96835.91;5092910;28;20020;-45
2024/01/17 04:53:48;;;;;;;6.45;4.43;;;;;;;9.67;100.00;96774.75;5092892;28;20024;-45
2024/01/17 04:56:15;;;;;;;5.30;3.83;;;;;;;9.62;100.00;96804.28;5092826;28;20016;-45
2024/01/17 04:58:43;;;;;;;4.70;3.42;;;;;;;9.56;100.00;96813.91;5092678;28;20503;-45
2024/01/17 05:01:09;;;;;;;7.28;5.22;;;;;;;9.55;100.00;96829.84;5092708;28;20020;-45
2024/01/17 05:03:36;;;;;;;21.42;18.40;;;;;;;9.45;100.00;96816.59;5108652;28;20041;-45
2024/01/17 05:06:02;;;;;;;5.07;3.53;;;;;;;9.45;100.00;96868.97;5091367;28;20024;-45
2024/01/17 05:08:29;;;;;;;5.47;4.45;;;;;;;9.39;100.00;96868.88;5092576;28;20035;-45
2024/01/17 05:10:55;;;;;;;7.25;4.70;;;;;;;9.39;100.00;96862.84;5092662;28;20123;-45
2024/01/17 05:13:21;;;;;;;25.55;21.15;;;;;;;9.46;100.00;96837.31;5108178;28;20080;-45
2024/01/17 05:15:47;;;;;;;40.83;36.47;;;;;;;9.50;100.00;96825.31;5091108;28;20121;-45
2024/01/17 05:18:13;;;;;;;167.57;149.52;;;;;;;9.56;100.00;96820.97;5091066;28;20127;-45
2024/01/17 05:20:39;;;;;;;41.28;36.90;;;;;;;9.63;100.00;96828.66;5092199;28;20040;-45
2024/01/17 05:23:05;;;;;;;36.33;32.05;;;;;;;9.65;100.00;96819.50;5090852;28;20497;-45
2024/01/17 05:25:33;;;;;;;23.98;20.58;;;;;;;9.68;100.00;96826.91;5091023;28;20031;-46
2024/01/17 05:28:01;;;;;;;15.18;12.60;;;;;;;9.78;100.00;96841.97;5092333;28;20020;-45
2024/01/17 05:30:27;;;;;;;20.75;18.02;;;;;;;9.89;100.00;96858.63;5092260;28;20499;-45
2024/01/17 05:32:54;;;;;;;13.98;10.32;;;;;;;10.10;100.00;96855.25;5090898;28;20119;-45
2024/01/17 05:35:23;;;;;;;7.65;6.32;;;;;;;10.25;100.00;96866.97;5090826;28;20036;-45
2024/01/17 05:37:49;;;;;;;8.23;4.82;;;;;;;10.28;100.00;96856.78;5092310;28;20497;-45
2024/01/17 05:40:15;;;;;;;13.57;12.15;;;;;;;10.28;100.00;96854.16;5107734;28;20032;-46
2024/01/17 05:42:43;;;;;;;212.57;190.73;;;;;;;10.42;100.00;96861.69;5090720;28;20035;-46
2024/01/17 05:45:08;;;;;;;47.60;42.75;;;;;;;10.51;100.00;96855.78;5090707;28;20028;-46
2024/01/17 05:47:38;;;;;;;24.77;22.33;;;;;;;10.63;100.00;96844.38;5092039;28;20058;-47
2024/01/17 05:50:11;;;;;;;12.43;11.13;;;;;;;10.80;100.00;96837.19;5091987;28;20024;-47
2024/01/17 05:52:41;;;;;;;13.30;12.00;;;;;;;10.86;100.00;96841.44;5092003;28;20028;-47
2024/01/17 05:55:09;;;;;;;15.52;11.80;;;;;;;10.99;100.00;96817.44;5090555;28;20031;-47
2024/01/17 05:57:35;;;;;;;14.07;10.00;;;;;;;11.10;100.00;96831.44;5091844;28;20165;-47
2024/01/17 06:00:02;;;;;;;19.33;17.42;;;;;;;11.25;100.00;96833.41;5091873;28;20546;-48
2024/01/17 06:02:28;;;;;;;14.05;11.77;;;;;;;11.40;100.00;96828.28;5092094;28;20024;-48
2024/01/17 06:04:54;;;;;;;13.05;9.15;;;;;;;11.59;100.00;96820.03;5090516;28;20024;-47
2024/01/17 06:07:21;;;;;;;9.90;8.70;;;;;;;11.76;100.00;96823.25;5091695;28;20575;-47
2024/01/17 06:09:47;;;;;;;12.43;11.18;;;;;;;11.89;100.00;96829.16;5090490;28;20020;-47
2024/01/17 06:12:13;;;;;;;9.10;6.85;;;;;;;11.82;100.00;96829.34;5091648;28;20398;-48
2024/01/17 06:14:40;;;;;;;9.77;8.68;;;;;;;11.83;100.00;96823.06;5091728;28;20026;-48
2024/01/17 06:17:06;;;;;;;13.57;12.35;;;;;;;11.89;100.00;96818.63;5090467;28;20093;-47
2024/01/17 06:19:32;;;;;;;10.38;7.72;;;;;;;12.07;100.00;96812.94;5091337;28;20048;-47
2024/01/17 06:21:58;;;;;;;7.82;6.38;;;;;;;12.31;100.00;96804.63;5091646;28;20078;-47
2024/01/17 06:24:24;;;;;;;6.50;5.28;;;;;;;12.57;100.00;96823.91;5091666;28;20027;-47
2024/01/17 06:26:49;;;;;;;4.70;4.25;;;;;;;12.64;100.00;96807.91;5090415;28;20032;-48
2024/01/17 06:29:15;;;;;;;6.28;4.65;;;;;;;12.58;100.00;96822.88;5091643;28;20080;-48
2024/01/17 06:31:41;;;;;;;10.23;8.15;;;;;;;12.51;100.00;96809.94;5090320;28;20024;-48
2024/01/17 06:34:07;;;;;;;6.80;4.55;;;;;;;12.45;100.00;96811.00;5093564;28;20039;-48
2024/01/17 06:36:33;;;;;;;4.55;3.70;;;;;;;12.36;100.00;96807.28;5094247;28;20020;-50
2024/01/17 06:38:59;;;;;;;6.05;4.80;;;;;;;12.33;100.00;96794.63;5111250;28;20489;-50
2024/01/17 06:41:25;;;;;;;6.47;5.70;;;;;;;12.31;100.00;96792.25;5095451;28;20016;-50
2024/01/17 06:43:50;;;;;;;8.95;4.32;;;;;;;12.30;100.00;96792.53;5095461;28;20031;-50
2024/01/17 06:46:16;;;;;;;8.45;4.80;;;;;;;12.19;100.00;96784.63;5095319;28;20024;-48
2024/01/17 06:48:42;;;;;;;8.82;4.80;;;;;;;11.99;100.00;96768.72;5095241;28;20170;-48
2024/01/17 06:51:08;;;;;;;5.38;3.53;;;;;;;11.92;100.00;96776.88;5095249;28;20062;-48
2024/01/17 06:53:36;;;;;;;4.30;3.55;;;;;;;11.88;100.00;96780.22;5110987;28;20028;-47
2024/01/17 06:56:02;;;;;;;6.15;3.13;;;;;;;12.02;100.00;96775.34;5111241;28;20028;-47
2024/01/17 06:58:27;;;;;;;10.88;6.20;;;;;;;12.06;100.00;96784.28;5095144;28;20031;-48
2024/01/17 07:00:53;;;;;;;5.38;4.47;;;;;;;11.95;100.00;96776.38;5095171;28;20047;-47
2024/01/17 07:03:20;;;;;;;8.15;4.68;;;;;;;11.91;100.00;96762.16;5095056;28;20496;-48
2024/01/17 07:05:45;;;;;;;10.27;9.00;;;;;;;11.92;100.00;96768.19;5093668;28;20039;-48
2024/01/17 07:08:11;;;;;;;5.05;3.63;;;;;;;11.92;100.00;96771.59;5095012;28;20028;-47
2024/01/17 07:10:38;;;;;;;15.13;13.60;;;;;;;11.95;100.00;96763.22;5093615;28;20020;-48
2024/01/17 07:13:05;;;;;;;7.43;5.78;;;;;;;12.05;100.00;96753.78;5094812;28;20037;-50
2024/01/17 07:15:31;;;;;;;8.20;4.63;;;;;;;12.14;100.00;96741.72;5094730;28;20509;-50
2024/01/17 07:17:58;;;;;;;7.78;4.15;;;;;;;12.25;100.00;96732.81;5094651;28;20103;-50
2024/01/17 07:20:24;;;;;;;9.50;8.50;;;;;;;12.33;100.00;96723.63;5093124;28;20050;-50
2024/01/17 07:22:50;;;;;;;7.00;4.63;;;;;;;12.42;100.00;96734.44;5093644;28;20024;-50
2024/01/17 07:25:16;;;;;;;4.32;3.30;;;;;;;12.37;100.00;96722.06;5094645;28;20394;-50
2024/01/17 07:27:45;;;;;;;11.68;10.40;;;;;;;12.31;100.00;96729.13;5110249;28;20028;-50
2024/01/17 07:30:12;;;;;;;7.97;6.25;;;;;;;12.27;100.00;96722.81;5110088;28;20027;-49
2024/01/17 07:32:39;;;;;;;17.63;15.90;;;;;;;12.37;100.00;96740.47;5094336;28;20027;-49
2024/01/17 07:35:05;;;;;;;4.18;3.13;;;;;;;12.44;100.00;96734.97;5093437;28;20028;-49
2024/01/17 07:37:31;;;;;;;3.13;2.83;;;;;;;12.53;100.00;96721.03;5092956;28;20513;-50
2024/01/17 07:39:57;;;;;;;4.45;3.65;;;;;;;12.58;100.00;96731.56;5110286;28;20058;-50
2024/01/17 07:42:23;;;;;;;5.97;5.38;;;;;;;12.60;100.00;96731.31;5094279;28;20027;-50
2024/01/17 07:44:49;;;;;;;3.70;2.70;;;;;;;12.59;100.00;96734.97;5109868;28;20032;-50
2024/01/17 07:47:15;;;;;;;3.85;2.83;;;;;;;12.42;100.00;96724.72;5092874;28;20077;-49
2024/01/17 07:49:42;;;;;;;3.20;2.28;;;;;;;12.29;100.00;96712.81;5094202;28;20028;-49
2024/01/17 07:52:08;;;;;;;5.32;3.80;;;;;;;12.16;100.00;96722.00;5075915;28;20030;-50
2024/01/17 07:54:34;;;;;;;13.98;4.60;;;;;;;12.19;100.00;96716.25;5109659;28;20028;-49
2024/01/17 07:57:00;;;;;;;14.52;5.07;;;;;;;12.35;100.00;96726.78;5094154;28;20123;-49
2024/01/17 07:59:27;;;;;;;10.27;3.42;;;;;;;12.44;100.00;96722.59;5109951;28;20119;-49
2024/01/17 08:01:54;;;;;;;4.28;2.60;;;;;;;12.48;100.00;96713.13;5093818;28;20069;-49
2024/01/17 08:04:20;;;;;;;6.78;4.68;;;;;;;12.52;100.00;96734.47;5093856;28;20463;-50
2024/01/17 08:06:47;;;;;;;2.60;2.40;;;;;;;12.43;100.00;96736.78;5094021;28;20381;-50
2024/01/17 08:09:24;;;;;;;5.32;2.28;;;;;;;12.43;100.00;96736.00;5093991;28;20536;-50
2024/01/17 08:11:58;;;;;;;4.13;1.67;;;;;;;12.39;100.00;96731.28;5093715;28;20024;-49
2024/01/17 08:14:24;;;;;;;5.15;2.25;;;;;;;12.38;100.00;96731.53;5094018;28;20038;-50
2024/01/17 08:16:50;;;;;;;2.22;1.95;;;;;;;12.39;100.00;96730.47;5093484;28;20431;-50
2024/01/17 08:19:17;;;;;;;4.97;2.55;;;;;;;12.37;100.00;96733.38;5108955;28;20036;-50
2024/01/17 08:21:49;;;;;;;6.10;5.47;;;;;;;12.32;100.00;96732.56;5092414;28;20043;-50
2024/01/17 08:24:15;;;;;;;4.05;2.00;;;;;;;12.25;100.00;96727.53;5092336;28;20110;-49
2024/01/17 08:26:41;;;;;;;4.63;2.03;;;;;;;12.22;100.00;96749.13;5092106;28;20016;-50
2024/01/17 08:29:08;;;;;;;4.75;1.88;;;;;;;12.19;100.00;96721.50;5093366;28;20027;-50
2024/01/17 08:31:34;;;;;;;5.85;2.05;;;;;;;12.17;100.00;96707.81;5109243;28;20116;-50
2024/01/17 08:34:00;;;;;;;10.50;2.40;;;;;;;12.22;100.00;96751.75;5093216;28;20107;-49
2024/01/17 08:36:30;;;;;;;8.32;2.85;;;;;;;12.27;100.00;96743.06;5093225;28;20024;-50
2024/01/17 08:38:59;;;;;;;3.10;2.15;;;;;;;12.25;100.00;96724.13;5109081;28;20024;-50
2024/01/17 08:41:25;;;;;;;7.00;3.80;;;;;;;12.30;100.00;96745.19;5093065;28;20432;-48
2024/01/17 08:43:51;;;;;;;14.52;3.28;;;;;;;12.34;100.00;96741.00;5108843;28;20030;-48
2024/01/17 08:46:16;;;;;;;9.88;3.67;;;;;;;12.41;100.00;96732.84;5093058;28;20070;-48
2024/01/17 08:48:42;;;;;;;16.00;5.07;;;;;;;12.45;100.00;96739.94;5093024;28;20509;-48
2024/01/17 08:51:08;;;;;;;11.05;2.25;;;;;;;12.67;100.00;96734.47;5092985;28;20026;-48
2024/01/17 08:53:34;;;;;;;21.08;3.90;;;;;;;12.89;100.00;96731.59;5091610;28;20115;-49
2024/01/17 08:56:04;;;;;;;5.60;1.58;;;;;;;12.89;100.00;96744.75;5092391;28;20028;-50
2024/01/17 08:58:33;;;;;;;5.85;2.15;;;;;;;12.87;93.09;96761.88;5108710;28;20067;-50
2024/01/17 09:01:01;;;;;;;7.68;2.78;;;;;;;12.73;97.04;96743.94;5108387;28;20138;-50
2024/01/17 09:03:29;;;;;;;6.25;2.03;;;;;;;12.73;96.56;96722.88;5092955;28;20020;-50
2024/01/17 09:05:55;;;;;;;7.78;2.53;;;;;;;12.66;93.70;96722.38;5091466;28;20020;-49
2024/01/17 09:08:21;;;;;;;6.97;3.30;;;;;;;12.59;96.01;96717.34;5092618;28;20024;-50
2024/01/17 09:10:47;;;;;;;10.15;3.05;;;;;;;12.57;97.71;96693.13;5092846;28;20536;-48
2024/01/17 09:13:13;;;;;;;5.97;1.90;;;;;;;12.61;99.11;96714.47;5092520;28;20056;-48
2024/01/17 09:15:39;;;;;;;15.15;3.75;;;;;;;12.63;96.57;96716.84;5091196;28;20051;-48
2024/01/17 09:18:08;;;;;;;20.55;2.67;;;;;;;12.65;97.53;96707.63;5108054;28;20032;-48
2024/01/17 09:20:34;;;;;;;17.65;3.00;;;;;;;12.73;99.71;96722.09;5092121;28;20048;-48
2024/01/17 09:23:00;;;;;;;9.30;4.07;;;;;;;12.74;97.01;96700.78;5092414;28;20027;-48
2024/01/17 09:25:25;;;;;;;6.50;2.80;;;;;;;12.74;93.70;96692.91;5092342;28;20481;-48
2024/01/17 09:27:51;;;;;;;10.73;3.47;;;;;;;12.71;95.80;96685.50;5092306;28;20039;-47
2024/01/17 09:30:17;;;;;;;3.35;2.10;;;;;;;12.70;95.72;96688.44;5107884;28;20035;-47
2024/01/17 09:32:47;;;;;;;3.63;2.30;;;;;;;12.65;95.16;96723.41;5092249;28;20103;-50
2024/01/17 09:35:16;;;;;;;9.13;4.10;;;;;;;12.68;95.54;96753.69;5092191;28;20028;-49
2024/01/17 09:37:42;;;;;;;3.40;2.67;;;;;;;12.69;95.64;96734.22;5092371;28;20031;-49
2024/01/17 09:40:10;;;;;;;3.05;1.98;;;;;;;12.73;93.28;96691.31;5092061;28;20100;-50
2024/01/17 09:42:36;;;;;;;10.98;3.00;;;;;;;12.68;93.88;96728.16;5090786;28;20016;-49
2024/01/17 09:45:03;;;;;;;10.15;3.97;;;;;;;12.69;94.86;96755.25;5091908;28;20016;-49
2024/01/17 09:47:34;;;;;;;5.55;3.10;;;;;;;12.72;92.60;96744.22;5107688;28;20111;-50
2024/01/17 09:50:00;;;;;;;6.82;3.28;;;;;;;12.70;92.28;96736.59;5092076;28;20486;-50
2024/01/17 09:52:26;;;;;;;3.90;3.42;;;;;;;12.65;93.39;96741.06;5091975;28;20077;-50
2024/01/17 09:54:55;;;;;;;3.60;2.60;;;;;;;12.63;95.22;96682.63;5091890;28;20028;-49
2024/01/17 09:57:26;;;;;;;4.80;3.72;;;;;;;12.61;96.37;96716.31;5090520;28;20031;-50
2024/01/17 09:59:55;;;;;;;3.97;2.10;;;;;;;12.56;97.62;96738.94;5107796;28;20093;-50
2024/01/17 10:02:21;;;;;;;3.95;2.75;;;;;;;12.53;97.66;96723.66;5091793;28;20032;-50
2024/01/17 10:04:49;;;;;;;3.90;3.00;;;;;;;12.99;99.41;96713.16;5090822;28;20034;-50
2024/01/17 10:07:16;;;;;;;3.08;2.08;;;;;;;13.33;96.42;96709.22;5107409;28;20024;-48
2024/01/17 10:09:44;;;;;;;6.00;2.90;;;;;;;13.76;98.74;96710.41;5110654;28;20024;-47
2024/01/17 10:12:10;;;;;;;3.80;2.38;;;;;;;14.14;93.15;96676.47;5096022;28;20016;-48
2024/01/17 10:14:36;;;;;;;4.88;2.60;;;;;;;14.28;91.31;96720.72;5095892;28;20031;-48
2024/01/17 10:17:04;;;;;;;2.70;1.88;;;;;;;14.26;91.51;96710.44;5095815;28;20382;-47
2024/01/17 10:19:30;;;;;;;2.65;2.33;;;;;;;14.71;90.92;96703.31;5095492;28;20044;-48
2024/01/17 10:21:56;;;;;;;2.58;1.90;;;;;;;15.05;89.00;96718.38;5095844;28;20036;-47
2024/01/17 10:24:22;;;;;;;5.15;4.25;;;;;;;15.10;90.03;96722.81;5096021;28;20031;-48
2024/01/17 10:26:51;;;;;;;7.78;2.80;;;;;;;15.84;87.55;96699.63;5094747;28;20028;-48
2024/01/17 10:29:17;;;;;;;13.27;11.85;;;;;;;16.37;80.53;96683.56;5095603;28;20024;-47
2024/01/17 10:31:44;;;;;;;18.80;16.85;;;;;;;16.69;79.77;96718.34;5094285;28;20031;-48
2024/01/17 10:34:10;;;;;;;10.82;7.00;;;;;;;16.43;80.13;96681.63;5095548;28;20047;-48
2024/01/17 10:36:42;;;;;;;10.27;3.55;;;;;;;16.13;80.14;96686.28;5094209;28;20028;-48
2024/01/17 10:39:11;;;;;;;4.50;2.92;;;;;;;15.69;78.68;96691.81;5111209;28;20024;-47
2024/01/17 10:41:59;;;;;;;4.80;2.95;;;;;;;15.45;80.03;96665.38;5095456;28;20020;-48
2024/01/17 10:44:26;;;;;;;4.15;2.13;;;;;;;15.52;85.51;96674.56;5095373;28;20032;-48
2024/01/17 10:46:53;;;;;;;3.28;2.00;;;;;;;15.72;82.11;96633.91;5095417;28;20024;-48
2024/01/17 10:49:23;;;;;;;16.23;2.97;;;;;;;15.67;83.00;96633.16;5095368;28;20516;-47
2024/01/17 10:52:02;;;;;;;5.90;2.40;;;;;;;15.62;81.46;96668.38;5111042;28;20028;-47
2024/01/17 10:54:47;;;;;;;12.70;3.38;;;;;;;15.50;83.20;96662.69;5095322;28;20443;-47
2024/01/17 10:57:15;;;;;;;13.13;2.58;;;;;;;15.38;83.97;96658.59;5095149;28;20067;-47
2024/01/17 10:59:42;;;;;;;5.10;2.40;;;;;;;15.36;85.44;96652.00;5110785;28;20036;-47
2024/01/17 11:02:18;;;;;;;8.25;2.47;;;;;;;15.42;83.84;96660.69;5095070;28;20512;-47
2024/01/17 11:04:47;;;;;;;5.72;2.70;;;;;;;15.36;84.20;96644.88;5095190;28;20032;-46
2024/01/17 11:07:16;;;;;;;7.30;5.15;;;;;;;15.26;83.59;96634.41;5095272;28;20046;-46
2024/01/17 11:09:45;;;;;;;5.70;3.60;;;;;;;15.15;82.91;96622.34;5095557;28;20047;-46
2024/01/17 11:12:14;;;;;;;21.35;9.00;;;;;;;15.01;82.36;96621.44;5094854;28;20012;-46
2024/01/17 11:14:41;;;;;;;7.28;3.58;;;;;;;15.02;86.00;96626.47;5110543;28;20032;-46
2024/01/17 11:17:07;;;;;;;13.65;2.95;;;;;;;15.03;83.86;96603.47;5110378;28;20024;-46
2024/01/17 11:19:35;;;;;;;16.45;3.72;;;;;;;14.97;85.52;96569.19;5109705;28;20048;-48
2024/01/17 11:22:01;;;;;;;14.88;3.75;;;;;;;15.04;86.77;96581.28;5094775;28;20063;-48